TAF Nordic - 12 Dec 2017 - 2347 UTC - RocketRoute WX - rrwx.com
EKYT 122021Z 1221/1318 21008KT 9999 SCT020 BKN080 TEMPO 1221/1306 3000 -SHRASN BR BKN006 SCT020CB BECMG 1306/1308 19012KT 6000 -RADZ BKN012 TEMPO 1308/1316 18018G28KT 2500 RASN BR BKN008 SCT020TCU TEMPO 1316/1318 18012G22KT 2500 RASN BR BKN003 SCT020TCU EKAH 121701Z 1218/1318 22010KT 9999 BKN020 TEMPO 1220/1301 SHRA SCT020CB BECMG 1306/1308 19018G30KT BECMG 1310/1312 -RADZ BKN012 TEMPO 1312/1318 20020KT 3000 RASN BR BKN006 EKBI 121701Z 1218/1318 20010KT 9999 SCT020 TEMPO 1220/1301 SHRA BKN020CB TEMPO 1303/1305 BKN008 BECMG 1305/1307 -RADZ BKN006 TEMPO 1307/1318 20018G28KT 2500 RASN BR BKN004 EKRN   EKEB   EKKA 122021Z 1221/1318 21008KT 9999 SCT020 BKN080 TEMPO 1221/1305 3000 -SHRASN BR BKN006 SCT020CB BECMG 1305/1307 19012KT 6000 -RADZ BKN012 TEMPO 1307/1315 18018G28KT 2500 RASN BR BKN006 SCT020TCU TEMPO 1315/1318 18012G22KT 2500 RASN BR BKN003 SCT020TCU EKCH 121701Z 1218/1318 26010KT 9999 SCT020 BECMG 1300/1303 21020G32KT TEMPO 1312/1318 RA BKN012 EKOD   EKRK 122002Z 1221/1306 23012KT 9999 BKN020 TEMPO 1305/1306 20015G25KT EKSP 122021Z 1221/1318 21008KT 9999 SCT020 BKN080 TEMPO 1221/1305 3000 -SHRASN BR BKN006 SCT020CB BECMG 1305/1307 19012KT 6000 -RADZ BKN012 TEMPO 1307/1315 18018G30KT 2500 RASN BR BKN006 SCT020TCU TEMPO 1315/1318 18012G22KT 2500 RASN BR BKN003 SCT020TCU EKVD   ESTA   ESNZ AMD 122117Z 1221/1224 28004KT 9999 OVC002 TEMPO 1221/1224 0500 BCFG SCT002 ESGP   ESGG 121730Z 1218/1318 28005KT CAVOK BECMG 1222/1224 -SN OVC003 PROB40 1223/1301 -FZRA TEMPO 1300/1304 1200 SHSNRA BKN010 BKN020TCU BECMG 1301/1303 21012KT BECMG 1304/1305 BKN030 BECMG 1307/1309 BKN008 TEMPO 1309/1318 2000 SNRA OVC004 ESMT   ESMQ   ESNQ 122030Z 1221/1224 36004KT 6000 -SN SCT010 BKN025 TEMPO 1221/1224 1800 SN VV008 ESPA 122030Z 1221/1224 36008KT 4000 -SN VV015 TEMPO 1221/1224 1200 SN VV006 ESMS 121702Z 1218/1318 31012KT 9999 BKN025 BECMG 1219/1222 22012KT TEMPO 1303/1314 22018G28KT TEMPO 1314/1318 18018G30KT RASN BKN012 ESSL   ESSA 121730Z 1218/1318 31009KT 9999 SCT009 BKN018 TEMPO 1218/1220 BKN009 BECMG 1308/1310 20010KT PROB40 1309/1314 BKN006 ESSB   ESKN AMD 121938Z 1219/1318 30010KT 4000 -SN BKN012 BECMG 1220/1222 9999 NSW BKN015 BECMG 1304/1306 21008KT TEMPO 1305/1309 4000 -SN BKN004 ESNU 122030Z 1221/1306 33008KT 9999 -SN BKN030 ESSV   ENAN COR 1218/1318 20008KT CAVOK TEMPO 1312/1318 35010KT 2000 SHSN VV012 ENAT   ENHF 122000Z 1221/1306 VRB05KT CAVOK ENDU 1218/1318 VRB05KT 9999 FEW040 PROB30 TEMPO 1218/1306 1200 PRFG TEMPO 1312/1318 2000 SN VV008 ENBO COR 1218/1318 09008KT 9999 FEW040 TEMPO 1306/1318 18012KT ENEV 122000Z 1221/1224 VRB05KT CAVOK ENBR COR 1218/1318 VRB05KT 9999 FEW015 BKN030 PROB30 TEMPO 1218/1303 2000 SHSN VV009 BECMG 1300/1303 15015KT TEMPO 1305/1310 15020G30KT 2000 SNRA VV009 BECMG 1309/1311 21012KT TEMPO 1310/1315 22015G25KT 4000 SHRAGS BKN014CB BECMG 1316/1318 15010KT ENFL   ENGM 1218/1318 VRB05KT CAVOK BECMG 1310/1312 3000 -SN BKN008 TEMPO 1311/1315 2000 SN VV004 PROB40 1315/1318 0500 FZFG VV001 ENHD   ENCN   ENTC 1218/1318 VRB05KT CAVOK TEMPO 1312/1318 4000 -SN BKN012 ENFB   ENSB 1218/1318 10012KT 9999 SCT025 BKN035 ENNK   ENRO   ENRY 1218/1318 VRB05KT CAVOK BECMG 1307/1309 3000 -SN BKN008 PROB40 1308/1311 2000 FZRA BR BKN004 BECMG 1310/1312 18020G30KT RADZ BR BECMG 1315/1317 18008KT 9999 NSW BKN015 ENZV   ENVA COR 1218/1318 12007KT 9999 FEW015 BKN030 TEMPO 1218/1307 0800 SHSN VV005 BECMG 1221/1223 24012KT TEMPO 1223/1305 26015G25KT BECMG 1307/1309 12007KT ENAL   EFET   EFTP 122026Z 1221/1321 28010KT 3500 -SN BKN005 BECMG 1221/1223 9999 SCT008 BKN015 TEMPO 1223/1304 BKN008 BECMG 1307/1309 22010KT BECMG 1316/1318 BKN008 EFTU 122035Z 1221/1321 29007KT 9999 BKN008 BKN023 BECMG 1221/1223 BKN015 TEMPO 1221/1304 5000 -SN TEMPO 1315/1320 6000 -RASN BKN012 BIAR 122000Z 1221/1321 13010KT 9000 SN SCT012 OVC020 TX00/1309Z TNM03/1218Z TEMPO 1221/1314 1500 SN OVC005 BECMG 1303/1306 35010KT BIEG 122000Z 1221/1321 11015KT 9999 RASN SCT020 OVC030 TX03/1221Z TN00/1315Z TEMPO 1221/1309 5000 RASN BKN010 OVC020 BECMG 1309/1312 02013KT 3000 SN OVC010 BIKF 122000Z 1221/1321 17012KT 9999 SCT020 BKN030 TX01/1222Z TNM03/1312Z BECMG 1222/1301 09010KT SCT030 BECMG 1315/1318 03015KT BIRK 122000Z 1221/1321 09010KT 9999 FEW030 SCT055 TX01/1222Z TNM03/1316Z BGJN AMD 122300Z 1223/1301 09012KT 9999 FEW080 TEMPO 1223/1301 10018KT DRSN BKN020 BGSF AMD 122035Z 1220/1301 06006KT 9999 BKN030 TEMPO 1220/1301 22005KT 1200 -SN BKN010 BGKK AMD 122030Z 1220/1224 07015G25KT 8000 -SN BKN040 TEMPO 1220/1222 05035G52KT 1000 SN DRSN BLSN BKN014 BGBW AMD 121700Z 1217/1224 VRB05KT 8000 SCT090 PROB40 1217/1224 22008KT 2500 -SN BKN006 BGGH 122034Z 1221/1224 29012KT 9999 -SN SCT012 BKN035 TEMPO 1221/1224 1200 SN BLSN DRSN VV005 BGTL AMD 122010Z 1220/1324 09009KT 9999 FEW100 QNH2902INS BECMG 1305/1306 VRB06KT 9999 SCT060 BKN120 QNH2928INS BECMG 1310/1311 VRB06KT 9999 SCT080 BKN150 QNH2943INS TXM16/1220Z TNM24/1312Z LAST NO AMDS AFT 1220 NEXT 1302 BGSS  

RocketRoute WX - rrwx.com weather for pilots